createdAt,value
2018-09-08T00:03:49.625Z,100702.16
2018-09-08T00:08:47.136Z,100705.55
2018-09-08T00:13:45.198Z,100702.05
2018-09-08T00:18:48.223Z,100697.61
2018-09-08T00:23:51.543Z,100712.61
2018-09-08T00:28:55.318Z,100717.63
2018-09-08T00:33:52.694Z,100710.55
2018-09-08T00:38:50.060Z,100712.87
2018-09-08T00:43:47.792Z,100710.37
2018-09-08T00:48:45.207Z,100726.98
2018-09-08T00:53:42.614Z,100718.30
2018-09-08T00:58:44.547Z,100722.48
2018-09-08T01:03:42.782Z,100726.50
2018-09-08T01:08:40.264Z,100730.88
2018-09-08T01:13:37.638Z,100735.00
2018-09-08T01:18:37.007Z,100729.87
2018-09-08T01:23:34.393Z,100735.91
2018-09-08T01:28:32.272Z,100737.50
2018-09-08T01:33:29.756Z,100734.48
2018-09-08T01:38:27.176Z,100737.80
2018-09-08T01:43:24.579Z,100733.02
2018-09-08T01:48:22.122Z,100725.47
2018-09-08T01:53:19.534Z,100735.36
2018-09-08T01:58:16.895Z,100731.20
2018-09-08T02:03:14.368Z,100732.24
2018-09-08T02:08:11.858Z,100735.63
2018-09-08T02:13:09.410Z,100732.84
2018-09-08T02:18:06.824Z,100730.45
2018-09-08T02:23:04.235Z,100729.58
2018-09-08T02:28:01.759Z,100731.92
2018-09-08T02:32:59.677Z,100737.95
2018-09-08T02:37:57.642Z,100739.73
2018-09-08T02:42:55.031Z,100750.77
2018-09-08T02:47:52.439Z,100751.98
2018-09-08T02:52:48.732Z,100745.85
2018-09-08T02:57:45.051Z,100742.39
2018-09-08T03:02:41.451Z,100746.03
2018-09-08T03:07:37.795Z,100749.84
2018-09-08T03:12:34.790Z,100754.52
2018-09-08T03:17:31.095Z,100746.09
2018-09-08T03:22:27.395Z,100752.00
2018-09-08T03:27:23.684Z,100748.61
2018-09-08T03:32:20.008Z,100753.25
2018-09-08T03:37:16.330Z,100753.93
2018-09-08T03:42:13.183Z,100760.69
2018-09-08T03:47:09.547Z,100764.47
2018-09-08T03:52:05.832Z,100767.39
2018-09-08T03:57:02.151Z,100769.16
2018-09-08T04:01:58.447Z,100780.16
2018-09-08T04:06:55.841Z,100788.05
2018-09-08T04:11:53.299Z,100799.13
2018-09-08T04:16:50.711Z,100792.45
2018-09-08T04:21:48.115Z,100801.70
2018-09-08T04:26:45.611Z,100804.75
2018-09-08T04:31:43.067Z,100804.89
2018-09-08T04:36:40.481Z,100808.73
2018-09-08T04:41:37.941Z,100820.55
2018-09-08T04:46:35.331Z,100822.41
2018-09-08T04:51:32.781Z,100824.75
2018-09-08T04:56:30.239Z,100831.31
2018-09-08T05:01:30.876Z,100826.51
2018-09-08T05:06:28.452Z,100833.67
2018-09-08T05:11:25.847Z,100839.17
2018-09-08T05:16:23.244Z,100841.77
2018-09-08T05:21:20.678Z,100834.25
2018-09-08T05:26:18.088Z,100840.65
2018-09-08T05:31:15.507Z,100839.37
2018-09-08T05:36:12.970Z,100834.64
2018-09-08T05:41:10.435Z,100830.36
2018-09-08T05:46:07.951Z,100831.67
2018-09-08T05:51:05.371Z,100833.97
2018-09-08T05:56:02.789Z,100834.70
2018-09-08T06:01:00.219Z,100836.30
2018-09-08T06:05:57.627Z,100838.42
2018-09-08T06:10:55.034Z,100842.81
2018-09-08T06:15:52.443Z,100858.92
2018-09-08T06:20:49.831Z,100859.91
2018-09-08T06:25:47.236Z,100871.42
2018-09-08T06:30:44.625Z,100873.41
2018-09-08T06:35:43.068Z,100878.09
2018-09-08T06:40:40.464Z,100883.89
2018-09-08T06:45:37.906Z,100888.84
2018-09-08T06:50:35.392Z,100890.55
2018-09-08T06:55:32.847Z,100891.80
2018-09-08T07:00:30.242Z,100894.33
2018-09-08T07:05:27.664Z,100892.29
2018-09-08T07:10:25.555Z,100892.07
2018-09-08T07:15:22.975Z,100895.36
2018-09-08T07:20:20.483Z,100892.33
2018-09-08T07:25:17.941Z,100887.28
2018-09-08T07:30:15.384Z,100887.27
2018-09-08T07:35:13.107Z,100896.04
2018-09-08T07:40:11.573Z,100895.27
2018-09-08T07:45:08.971Z,100891.88
2018-09-08T07:50:06.443Z,100892.03
2018-09-08T07:55:03.934Z,100894.39
2018-09-08T08:00:01.409Z,100900.59
2018-09-08T08:04:58.879Z,100902.16
2018-09-08T08:09:57.728Z,100903.61
2018-09-08T08:14:55.173Z,100901.71
2018-09-08T08:19:52.619Z,100900.30
2018-09-08T08:24:50.045Z,100901.06
2018-09-08T08:29:47.470Z,100897.50
2018-09-08T08:34:44.900Z,100899.39
2018-09-08T08:39:50.629Z,100899.98
2018-09-08T08:44:48.082Z,100902.19
2018-09-08T08:49:52.962Z,100907.31
2018-09-08T08:54:54.646Z,100911.08
2018-09-08T08:59:52.123Z,100915.58
2018-09-08T09:04:49.531Z,100915.61
2018-09-08T09:09:54.603Z,100923.78
2018-09-08T09:14:52.643Z,100914.75
2018-09-08T09:20:01.443Z,100918.05
2018-09-08T09:25:08.317Z,100910.30
2018-09-08T09:30:06.773Z,100903.56
2018-09-08T09:35:04.447Z,100915.05
2018-09-08T09:40:02.927Z,100911.31
2018-09-08T09:45:00.356Z,100918.03
2018-09-08T09:49:57.782Z,100912.46
2018-09-08T09:54:56.009Z,100905.89
2018-09-08T09:59:53.456Z,100912.95
2018-09-08T10:04:50.882Z,100910.92
2018-09-08T10:09:55.042Z,100908.02
2018-09-08T10:14:52.460Z,100914.45
2018-09-08T10:19:49.929Z,100914.42
2018-09-08T10:24:47.364Z,100916.84
2018-09-08T10:29:44.788Z,100917.39
2018-09-08T10:34:43.153Z,100896.02
2018-09-08T10:39:47.946Z,100906.38
2018-09-08T10:44:46.902Z,100911.28
2018-09-08T10:49:44.439Z,100903.95
2018-09-08T10:54:41.879Z,100896.20
2018-09-08T10:59:39.283Z,100889.55
2018-09-08T11:04:36.711Z,100903.70
2018-09-08T11:09:43.907Z,100912.48
2018-09-08T11:14:41.373Z,100907.72
2018-09-08T11:19:38.783Z,100908.45
2018-09-08T11:24:36.191Z,100907.54
2018-09-08T11:29:33.639Z,100911.06
2018-09-08T11:34:31.323Z,100910.63
2018-09-08T11:39:35.779Z,100902.34
2018-09-08T11:44:35.378Z,100903.07
2018-09-08T11:49:32.824Z,100918.83
2018-09-08T11:54:30.219Z,100907.95
2018-09-08T11:59:27.685Z,100900.60
2018-09-08T12:04:25.083Z,100910.48
2018-09-08T12:14:40.907Z,100903.88
2018-09-08T12:19:38.325Z,100897.48
2018-09-08T12:24:35.744Z,100897.92
2018-09-08T12:29:33.160Z,100896.27
2018-09-08T12:34:30.602Z,100894.22
2018-09-08T12:39:37.156Z,100899.85
2018-09-08T12:44:34.644Z,100908.28
2018-09-08T12:49:32.099Z,100900.94
2018-09-08T12:54:29.554Z,100901.87
2018-09-08T12:59:27.234Z,100901.70
2018-09-08T13:04:24.634Z,100903.07
2018-09-08T13:09:33.116Z,100892.02
2018-09-08T13:14:30.930Z,100886.60
2018-09-08T13:19:28.330Z,100882.04
2018-09-08T13:24:25.729Z,100871.23
2018-09-08T13:29:23.381Z,100872.56
2018-09-08T13:34:20.783Z,100878.59
2018-09-08T13:39:31.527Z,100865.69
2018-09-08T13:44:29.988Z,100861.31
2018-09-08T13:49:27.620Z,100856.17
2018-09-08T13:54:25.527Z,100849.85
2018-09-08T13:59:22.978Z,100849.72
2018-09-08T14:04:20.482Z,100845.25
2018-09-08T14:09:23.540Z,100858.27
2018-09-08T14:14:21.126Z,100856.63
2018-09-08T14:19:18.534Z,100853.69
2018-09-08T14:24:15.967Z,100853.60
2018-09-08T14:29:13.423Z,100850.51
2018-09-08T14:34:10.920Z,100839.56
2018-09-08T14:39:11.959Z,100849.06
2018-09-08T14:44:09.399Z,100850.42
2018-09-08T14:49:06.811Z,100850.53
2018-09-08T14:54:04.304Z,100842.36
2018-09-08T14:59:01.779Z,100852.83
2018-09-08T15:03:59.189Z,100848.57
2018-09-08T15:08:57.419Z,100855.69
2018-09-08T15:13:54.854Z,100865.82
2018-09-08T15:18:52.283Z,100860.95
2018-09-08T15:23:51.353Z,100862.08
2018-09-08T15:28:48.776Z,100870.09
2018-09-08T15:33:46.191Z,100869.33
2018-09-08T15:38:43.587Z,100871.53
2018-09-08T15:43:41.025Z,100859.40
2018-09-08T15:48:38.464Z,100861.91
2018-09-08T15:53:35.900Z,100869.02
2018-09-08T15:58:33.434Z,100861.02
2018-09-08T16:03:30.731Z,100854.68
2018-09-08T16:08:28.194Z,100852.59
2018-09-08T16:13:25.614Z,100860.86
2018-09-08T16:18:23.039Z,100854.13
2018-09-08T16:23:20.475Z,100854.13
2018-09-08T16:28:17.893Z,100841.43
2018-09-08T16:33:15.283Z,100839.47
2018-09-08T16:38:12.679Z,100847.17
2018-09-08T16:43:10.094Z,100841.08
2018-09-08T16:48:07.522Z,100833.25
2018-09-08T16:53:05.564Z,100844.30
2018-09-08T16:58:03.125Z,100851.66
2018-09-08T17:03:01.426Z,100851.36
2018-09-08T17:07:58.885Z,100845.53
2018-09-08T17:12:56.310Z,100858.28
2018-09-08T17:17:53.820Z,100860.95
2018-09-08T17:22:51.335Z,100853.24
2018-09-08T17:27:48.739Z,100848.50
2018-09-08T17:32:46.150Z,100855.27
2018-09-08T17:37:43.550Z,100853.09
2018-09-08T17:42:40.971Z,100861.83
2018-09-08T17:47:38.391Z,100860.50
2018-09-08T17:52:35.871Z,100858.94
2018-09-08T17:57:33.449Z,100859.67
2018-09-08T18:02:30.863Z,100852.78
2018-09-08T18:07:28.271Z,100848.94
2018-09-08T18:12:25.716Z,100861.39
2018-09-08T18:17:23.199Z,100861.94
2018-09-08T18:22:21.299Z,100863.98
2018-09-08T18:27:18.776Z,100870.30
2018-09-08T18:32:16.237Z,100877.83
2018-09-08T18:37:13.822Z,100883.91
2018-09-08T18:42:11.479Z,100887.77
2018-09-08T18:47:08.921Z,100884.14
2018-09-08T18:52:06.432Z,100880.50
2018-09-08T18:57:03.908Z,100890.25
2018-09-08T19:02:01.321Z,100890.33
2018-09-08T19:06:58.742Z,100897.45
2018-09-08T19:11:56.178Z,100888.91
2018-09-08T19:16:53.599Z,100881.25
2018-09-08T19:21:51.237Z,100882.52
2018-09-08T19:26:48.665Z,100887.08
2018-09-08T19:31:46.134Z,100886.80
2018-09-08T19:36:43.774Z,100890.57
2018-09-08T19:41:41.221Z,100888.21
2018-09-08T19:46:44.155Z,100891.47
2018-09-08T19:51:41.564Z,100891.23
2018-09-08T19:56:45.199Z,100896.53
2018-09-08T20:01:42.602Z,100893.97
2018-09-08T20:06:40.006Z,100896.59
2018-09-08T20:11:37.436Z,100892.90
2018-09-08T20:16:35.852Z,100903.92
2018-09-08T20:21:33.255Z,100908.17
2018-09-08T20:26:30.719Z,100899.91
2018-09-08T20:31:28.074Z,100897.73
2018-09-08T20:36:25.491Z,100894.50
2018-09-08T20:41:22.864Z,100899.64
2018-09-08T20:46:21.115Z,100891.63
2018-09-08T20:51:18.521Z,100891.01
2018-09-08T20:56:15.910Z,100892.59
2018-09-08T21:01:13.327Z,100896.52
2018-09-08T21:06:10.738Z,100898.55
2018-09-08T21:11:08.115Z,100899.29
2018-09-08T21:16:05.542Z,100895.66
2018-09-08T21:21:02.924Z,100897.42
2018-09-08T21:26:00.578Z,100905.11
2018-09-08T21:30:57.948Z,100902.03
2018-09-08T21:35:55.582Z,100905.05
2018-09-08T21:40:52.994Z,100907.70
2018-09-08T21:45:50.387Z,100906.47
2018-09-08T21:50:47.771Z,100909.20
2018-09-08T21:55:45.171Z,100907.02
2018-09-08T22:00:47.204Z,100904.95
2018-09-08T22:05:44.596Z,100910.97
2018-09-08T22:10:42.033Z,100908.09
2018-09-08T22:15:39.432Z,100912.41
2018-09-08T22:20:36.847Z,100906.95
2018-09-08T22:25:34.235Z,100907.48
2018-09-08T22:30:31.619Z,100905.31
2018-09-08T22:35:29.004Z,100903.36
2018-09-08T22:40:26.513Z,100895.02
2018-09-08T22:45:23.919Z,100903.60
2018-09-08T22:50:21.344Z,100907.98
2018-09-08T22:55:18.822Z,100910.20
2018-09-08T23:00:16.675Z,100918.04
2018-09-08T23:05:14.191Z,100911.22
2018-09-08T23:10:12.725Z,100923.02
2018-09-08T23:15:10.179Z,100925.35
2018-09-08T23:20:07.611Z,100913.03
2018-09-08T23:25:05.022Z,100918.45
2018-09-08T23:30:02.495Z,100928.41
2018-09-08T23:34:59.938Z,100934.91
2018-09-08T23:39:58.681Z,100932.55
2018-09-08T23:44:56.072Z,100926.20
2018-09-08T23:49:53.579Z,100929.50
2018-09-08T23:54:50.975Z,100931.77
2018-09-08T23:59:48.799Z,100930.52
